Time;durP1;ratioP1;P1;durP2;ratioP2;P2;SDS_P1;SDS_P2;PMS_P1;PMS_P2;Temp;Humidity;BMP_temperature;BMP_pressure;BME280_temperature;BME280_humidity;BME280_pressure;Samples;Min_cycle;Max_cycle;Signal;HPM_P1;HPM_P2
2021/06/02 00:02:01;;;;;;;5.77;5.27;;;11.80;55.80;;;;;;4996410;28;20454;-79
2021/06/02 00:04:44;;;;;;;6.27;5.23;;;11.80;56.40;;;;;;4998008;28;20488;-80
2021/06/02 00:07:22;;;;;;;6.83;4.50;;;11.80;56.50;;;;;;4998162;28;20457;-80
2021/06/02 00:09:58;;;;;;;5.50;5.00;;;11.80;56.90;;;;;;5000555;28;20540;-80
2021/06/02 00:12:33;;;;;;;5.30;4.80;;;11.70;57.30;;;;;;4992904;28;20493;-79
2021/06/02 00:15:08;;;;;;;6.97;5.80;;;11.60;57.70;;;;;;4993248;28;20469;-78
2021/06/02 00:17:44;;;;;;;4.33;4.03;;;11.60;58.20;;;;;;4993318;28;20441;-84
2021/06/02 00:20:21;;;;;;;4.97;4.43;;;11.60;58.40;;;;;;4998136;28;20489;-78
2021/06/02 00:22:56;;;;;;;7.20;4.90;;;11.50;59.00;;;;;;4997197;28;20497;-81
2021/06/02 00:25:31;;;;;;;4.83;4.43;;;11.70;59.30;;;;;;4997990;28;20536;-79
2021/06/02 00:28:06;;;;;;;7.20;4.90;;;11.60;59.50;;;;;;4999768;28;20485;-79
2021/06/02 00:30:41;;;;;;;8.43;5.07;;;11.60;59.00;;;;;;4994260;28;20445;-80
2021/06/02 00:33:17;;;;;;;5.73;5.00;;;11.50;59.70;;;;;;4990775;28;20517;-80
2021/06/02 00:35:55;;;;;;;5.60;5.10;;;11.40;60.50;;;;;;4989689;28;21211;-79
2021/06/02 00:38:30;;;;;;;5.70;5.03;;;11.40;60.80;;;;;;4993260;28;20483;-79
2021/06/02 00:41:05;;;;;;;5.77;5.27;;;11.40;61.50;;;;;;5000143;28;20455;-79
2021/06/02 00:43:40;;;;;;;5.73;5.20;;;11.30;61.90;;;;;;4994775;28;20793;-78
2021/06/02 00:46:17;;;;;;;6.97;5.10;;;11.20;62.50;;;;;;4992954;28;20456;-79
2021/06/02 00:48:52;;;;;;;8.23;4.70;;;11.20;63.00;;;;;;4990327;28;20552;-80
2021/06/02 00:51:32;;;;;;;7.60;4.30;;;11.20;63.00;;;;;;4997828;28;20458;-78
2021/06/02 00:54:08;;;;;;;5.20;4.20;;;11.40;63.50;;;;;;4989889;28;21017;-83
2021/06/02 00:56:45;;;;;;;5.10;4.70;;;11.30;63.50;;;;;;4989469;28;20906;-79
2021/06/02 00:59:24;;;;;;;5.13;4.50;;;11.20;63.70;;;;;;4993484;28;20500;-79
2021/06/02 01:01:59;;;;;;;6.63;4.90;;;11.10;64.10;;;;;;4991506;28;20485;-82
2021/06/02 01:04:32;;;;;;;6.50;4.90;;;11.30;64.30;;;;;;4993086;28;20499;-79
2021/06/02 01:07:10;;;;;;;5.63;5.03;;;11.20;64.10;;;;;;4994577;28;20461;-79
2021/06/02 01:09:49;;;;;;;5.50;5.00;;;11.30;64.50;;;;;;4994545;28;20968;-80
2021/06/02 01:12:25;;;;;;;6.93;5.07;;;11.20;65.00;;;;;;4997525;28;20441;-80
2021/06/02 01:15:01;;;;;;;5.10;4.37;;;11.20;64.80;;;;;;4992596;28;20455;-79
2021/06/02 01:17:36;;;;;;;6.97;5.00;;;11.30;64.80;;;;;;4996626;28;20466;-80
2021/06/02 01:20:12;;;;;;;5.50;5.00;;;11.30;64.90;;;;;;4997709;28;20468;-79
2021/06/02 01:22:49;;;;;;;7.30;4.87;;;11.30;65.10;;;;;;4997207;28;20947;-81
2021/06/02 01:25:26;;;;;;;5.40;5.00;;;11.30;65.10;;;;;;4996201;28;20458;-80
2021/06/02 01:28:01;;;;;;;6.13;5.53;;;11.30;65.30;;;;;;4995748;28;21238;-79
2021/06/02 01:30:36;;;;;;;4.90;4.50;;;11.30;65.50;;;;;;4993393;28;20472;-79
2021/06/02 01:33:35;;;;;;;5.40;4.90;;;11.30;65.50;;;;;;4998131;28;20457;-80
2021/06/02 01:36:13;;;;;;;5.40;4.90;;;11.30;65.70;;;;;;4996878;28;20811;-79
2021/06/02 01:39:25;;;;;;;5.90;5.40;;;11.30;65.80;;;;;;4993468;28;20480;-78
2021/06/02 01:42:24;;;;;;;6.93;4.70;;;11.30;65.90;;;;;;4999271;28;20540;-79
2021/06/02 01:45:25;;;;;;;4.80;4.40;;;11.30;65.90;;;;;;4992777;28;20505;-79
2021/06/02 01:48:20;;;;;;;10.90;5.23;;;11.30;66.00;;;;;;4993340;28;20556;-79
2021/06/02 01:51:21;;;;;;;5.93;5.43;;;11.30;66.10;;;;;;4995259;28;20536;-79
2021/06/02 01:54:13;;;;;;;5.27;4.77;;;11.20;66.30;;;;;;4965687;28;20501;-79
2021/06/02 01:57:18;;;;;;;5.33;4.87;;;11.10;66.60;;;;;;4991502;28;20543;-81
2021/06/02 02:00:12;;;;;;;5.37;4.97;;;11.10;66.80;;;;;;4986544;28;20556;-79
2021/06/02 02:03:24;;;;;;;5.87;4.70;;;11.00;67.50;;;;;;4993707;28;20483;-83
2021/06/02 02:06:44;;;;;;;5.33;4.83;;;11.10;67.70;;;;;;4994428;28;20449;-88
2021/06/02 02:09:33;;;;;;;8.30;4.80;;;11.10;67.70;;;;;;4953843;28;20491;-80
2021/06/02 02:12:22;;;;;;;5.60;5.10;;;10.90;68.20;;;;;;4949407;28;20997;-80
2021/06/02 02:15:23;;;;;;;5.67;5.17;;;10.80;68.60;;;;;;4981118;28;21153;-82
2021/06/02 02:18:33;;;;;;;5.60;5.10;;;10.90;69.00;;;;;;4993061;28;20481;-79
2021/06/02 02:21:18;;;;;;;5.67;4.70;;;10.80;69.10;;;;;;4957664;28;21038;-79
2021/06/02 02:24:01;;;;;;;5.60;5.13;;;10.80;69.60;;;;;;4996431;28;20525;-79
2021/06/02 02:26:48;;;;;;;6.93;5.03;;;10.70;69.80;;;;;;4997028;28;20460;-82
2021/06/02 02:29:37;;;;;;;5.93;5.40;;;10.70;70.00;;;;;;4994607;28;20453;-79
2021/06/02 02:32:36;;;;;;;6.87;5.10;;;10.80;70.30;;;;;;4995827;28;20445;-82
2021/06/02 02:35:28;;;;;;;5.60;5.10;;;10.70;70.30;;;;;;4984976;28;20465;-79
2021/06/02 02:38:22;;;;;;;5.60;5.10;;;10.60;71.00;;;;;;4989330;28;20478;-80
2021/06/02 02:41:07;;;;;;;5.20;4.70;;;10.60;71.00;;;;;;4999201;28;20469;-82
2021/06/02 02:43:57;;;;;;;7.17;5.50;;;10.70;71.10;;;;;;4995307;28;20469;-79
2021/06/02 02:46:40;;;;;;;7.03;4.83;;;10.70;70.90;;;;;;4994268;28;20446;-86
2021/06/02 02:49:37;;;;;;;5.47;4.87;;;10.70;70.90;;;;;;4993901;28;20529;-82
2021/06/02 02:52:18;;;;;;;7.30;5.80;;;10.70;71.10;;;;;;4991874;28;20477;-79
2021/06/02 02:54:59;;;;;;;7.30;6.20;;;10.70;70.90;;;;;;5006583;28;20449;-84
2021/06/02 02:57:41;;;;;;;5.73;5.27;;;10.80;71.60;;;;;;5003220;28;20557;-79
2021/06/02 03:00:19;;;;;;;6.40;5.20;;;10.60;71.30;;;;;;5001191;28;20476;-79
2021/06/02 03:03:15;;;;;;;6.27;5.70;;;10.70;71.80;;;;;;4991957;28;20539;-79
2021/06/02 03:06:10;;;;;;;6.20;5.60;;;10.60;71.80;;;;;;4994294;28;20457;-80
2021/06/02 03:08:55;;;;;;;7.47;5.23;;;10.50;72.00;;;;;;4989324;28;20519;-79
2021/06/02 03:11:35;;;;;;;7.60;5.30;;;10.60;71.90;;;;;;4996832;28;20873;-79
2021/06/02 03:14:18;;;;;;;6.23;5.63;;;10.60;71.90;;;;;;5000421;28;20456;-79
2021/06/02 03:17:01;;;;;;;6.70;6.10;;;10.60;72.00;;;;;;5019768;28;20452;-79
2021/06/02 03:19:48;;;;;;;6.30;5.80;;;10.60;72.10;;;;;;5009937;28;20463;-79
2021/06/02 03:22:30;;;;;;;6.40;5.80;;;10.50;72.60;;;;;;5004526;28;21087;-82
2021/06/02 03:25:24;;;;;;;6.07;5.47;;;10.50;72.50;;;;;;5004465;28;20480;-79
2021/06/02 03:28:17;;;;;;;7.87;5.73;;;10.60;72.60;;;;;;4995827;28;20441;-79
2021/06/02 03:31:04;;;;;;;6.60;5.90;;;10.50;72.60;;;;;;5010286;28;20523;-79
2021/06/02 03:33:59;;;;;;;10.00;5.80;;;10.50;72.90;;;;;;4999354;28;20480;-78
2021/06/02 03:36:44;;;;;;;6.50;6.00;;;10.50;73.30;;;;;;4993604;28;20487;-79
2021/06/02 03:39:26;;;;;;;9.90;5.57;;;10.50;73.10;;;;;;4994687;28;20551;-79
2021/06/02 03:42:05;;;;;;;6.17;5.67;;;10.40;73.30;;;;;;4992911;28;20447;-81
2021/06/02 03:44:56;;;;;;;6.53;5.47;;;10.40;73.50;;;;;;4990773;28;20533;-79
2021/06/02 03:47:46;;;;;;;6.43;5.80;;;10.50;73.40;;;;;;4996508;28;20770;-79
2021/06/02 03:50:26;;;;;;;6.00;5.50;;;10.60;73.10;;;;;;4995070;28;20539;-80
2021/06/02 03:53:26;;;;;;;10.13;6.87;;;10.60;72.90;;;;;;4993727;28;20543;-79
2021/06/02 03:56:09;;;;;;;6.40;5.80;;;10.70;72.80;;;;;;4993109;28;20453;-82
2021/06/02 03:58:55;;;;;;;6.17;5.63;;;10.70;72.70;;;;;;4999166;28;20520;-80
2021/06/02 04:01:40;;;;;;;6.20;5.60;;;10.70;72.80;;;;;;5004499;28;20463;-81
2021/06/02 04:04:24;;;;;;;6.47;5.77;;;10.80;72.90;;;;;;5006819;28;20440;-81
2021/06/02 04:07:05;;;;;;;6.43;5.27;;;10.90;72.90;;;;;;5000801;28;20460;-79
2021/06/02 04:09:55;;;;;;;6.90;6.20;;;11.00;72.60;;;;;;4997008;28;20484;-79
2021/06/02 04:12:35;;;;;;;6.10;5.60;;;11.10;72.20;;;;;;4994920;28;20960;-79
2021/06/02 04:15:12;;;;;;;6.60;6.00;;;11.30;71.80;;;;;;5004674;28;20445;-79
2021/06/02 04:17:50;;;;;;;7.10;6.07;;;11.40;71.30;;;;;;4988577;28;20489;-79
2021/06/02 04:20:26;;;;;;;6.47;5.83;;;11.60;70.80;;;;;;4994151;28;20508;-79
2021/06/02 04:23:05;;;;;;;6.07;5.57;;;11.70;70.30;;;;;;4994722;28;20445;-79
2021/06/02 04:25:43;;;;;;;7.23;6.40;;;11.80;69.90;;;;;;4992124;28;20485;-79
2021/06/02 04:28:19;;;;;;;6.77;6.17;;;12.00;70.20;;;;;;4992677;28;20527;-80
2021/06/02 04:30:58;;;;;;;7.80;6.10;;;12.20;69.20;;;;;;4990516;28;20459;-80
2021/06/02 04:33:34;;;;;;;11.70;6.20;;;12.40;68.40;;;;;;4995499;28;20453;-79
2021/06/02 04:36:11;;;;;;;7.03;6.40;;;12.60;68.00;;;;;;4993467;28;20476;-80
2021/06/02 04:38:46;;;;;;;6.80;6.20;;;12.80;67.50;;;;;;4999069;28;20513;-84
2021/06/02 04:41:24;;;;;;;6.97;6.10;;;12.90;67.10;;;;;;5000600;28;20516;-86
2021/06/02 04:44:00;;;;;;;6.63;6.03;;;13.10;66.30;;;;;;4998765;28;21269;-85
2021/06/02 04:46:37;;;;;;;8.33;6.00;;;13.10;65.90;;;;;;5000815;28;20488;-88
2021/06/02 04:49:12;;;;;;;7.77;6.00;;;13.10;65.50;;;;;;4995239;28;20442;-84
2021/06/02 04:52:28;;;;;;;7.07;6.47;;;13.20;65.80;;;;;;5001938;28;20454;-89
2021/06/02 04:55:47;;;;;;;6.27;5.70;;;13.40;65.50;;;;;;4939249;29;20458;-86
2021/06/02 04:59:04;;;;;;;5.60;5.07;;;12.80;64.70;;;;;;4962936;28;20523;-86
2021/06/02 05:02:14;;;;;;;6.13;5.63;;;12.70;64.80;;;;;;4966037;28;20456;-86
2021/06/02 05:05:20;;;;;;;6.80;6.10;;;12.80;66.20;;;;;;4970055;28;20459;-86
2021/06/02 05:08:43;;;;;;;8.13;6.13;;;12.90;65.70;;;;;;4997121;28;20459;-86
2021/06/02 05:11:59;;;;;;;9.37;6.03;;;13.00;65.00;;;;;;4923590;29;20529;-86
2021/06/02 05:15:04;;;;;;;8.10;5.53;;;12.80;64.70;;;;;;5001917;28;20474;-87
2021/06/02 05:17:57;;;;;;;10.87;6.97;;;13.30;65.10;;;;;;4998070;28;20974;-86
2021/06/02 05:24:31;;;;;;;7.70;5.90;;;14.20;63.50;;;;;;4978517;28;21004;-86
2021/06/02 05:27:53;;;;;;;10.13;6.47;;;14.60;63.40;;;;;;4998478;28;20864;-83
2021/06/02 05:30:47;;;;;;;14.57;6.63;;;14.60;62.70;;;;;;4991667;28;20822;-82
2021/06/02 05:33:51;;;;;;;6.80;6.27;;;14.40;61.50;;;;;;4999726;28;20448;-80
2021/06/02 05:37:12;;;;;;;11.37;6.40;;;15.40;61.70;;;;;;4995385;28;20454;-81
2021/06/02 05:40:16;;;;;;;7.17;5.77;;;16.10;60.20;;;;;;4951518;28;20508;-83
2021/06/02 05:43:27;;;;;;;6.87;5.73;;;16.50;58.90;;;;;;4965483;28;20469;-80
2021/06/02 05:46:47;;;;;;;11.47;6.70;;;17.00;57.30;;;;;;4965757;28;20822;-80
2021/06/02 05:49:48;;;;;;;7.93;5.90;;;18.00;56.70;;;;;;4958770;28;20463;-83
2021/06/02 05:52:56;;;;;;;7.07;6.17;;;18.80;55.30;;;;;;4997722;28;20527;-79
2021/06/02 05:55:58;;;;;;;9.77;7.00;;;19.40;54.40;;;;;;4993884;28;20448;-80
2021/06/02 05:59:07;;;;;;;9.10;6.70;;;19.50;53.10;;;;;;4996065;28;20455;-79
2021/06/02 06:02:12;;;;;;;8.57;5.87;;;20.30;53.00;;;;;;4968626;28;20835;-81
2021/06/02 06:05:27;;;;;;;6.17;5.67;;;20.70;51.50;;;;;;4992107;28;20515;-81
2021/06/02 06:08:41;;;;;;;7.60;5.73;;;20.70;51.00;;;;;;5001006;28;20456;-80
2021/06/02 06:12:01;;;;;;;6.83;5.77;;;20.00;51.40;;;;;;4995172;28;20456;-81
2021/06/02 06:15:10;;;;;;;5.70;5.20;;;20.00;50.90;;;;;;4983866;28;20490;-80
2021/06/02 06:18:06;;;;;;;7.90;5.23;;;19.70;51.00;;;;;;4991327;28;20483;-86
2021/06/02 06:21:13;;;;;;;6.55;5.50;;;19.00;50.70;;;;;;4994064;28;20445;-85
2021/06/02 06:24:02;;;;;;;8.60;5.77;;;19.00;51.50;;;;;;4999989;28;20216;-83
2021/06/02 06:26:40;;;;;;;5.10;4.70;;;17.70;51.20;;;;;;4996567;28;20817;-88
2021/06/02 06:29:22;;;;;;;7.10;5.07;;;17.70;52.30;;;;;;4999766;28;20524;-80
2021/06/02 06:31:59;;;;;;;7.10;5.40;;;17.40;52.40;;;;;;4990525;28;20722;-79
2021/06/02 06:34:38;;;;;;;5.07;4.67;;;17.40;52.80;;;;;;5001471;28;20863;-81
2021/06/02 06:37:16;;;;;;;20.67;6.87;;;17.10;52.40;;;;;;5003936;28;20483;-86
2021/06/02 06:39:54;;;;;;;6.00;5.50;;;17.20;52.80;;;;;;4993467;28;20476;-80
2021/06/02 06:42:30;;;;;;;8.50;5.50;;;17.30;53.30;;;;;;5002857;28;20464;-86
2021/06/02 06:58:48;;;;;;;4.80;4.40;;;18.20;52.50;;;;;;5018642;28;20512;-88
2021/06/02 07:02:06;;;;;;;10.13;5.00;;;18.10;52.70;;;;;;5016795;28;20532;-85
2021/06/02 07:08:01;;;;;;;9.63;5.23;;;17.70;53.00;;;;;;4950981;29;20498;-89
2021/06/02 07:10:38;;;;;;;9.40;5.20;;;17.60;52.90;;;;;;5005246;28;20467;-80
2021/06/02 07:13:17;;;;;;;7.07;5.38;;;17.50;53.60;;;;;;5003637;28;20474;-89
2021/06/02 07:16:18;;;;;;;5.70;4.93;;;17.20;53.50;;;;;;4990281;28;20575;-81
2021/06/02 07:18:56;;;;;;;6.13;5.53;;;17.30;54.10;;;;;;5002248;28;20216;-80
2021/06/02 07:21:32;;;;;;;9.60;5.70;;;17.40;54.20;;;;;;5013968;28;20501;-79
2021/06/02 07:24:11;;;;;;;5.10;4.60;;;17.30;54.10;;;;;;4989552;28;20519;-82
2021/06/02 07:26:45;;;;;;;6.50;5.50;;;16.90;54.40;;;;;;4999899;28;20471;-81
2021/06/02 07:29:19;;;;;;;10.13;5.50;;;16.90;54.50;;;;;;5007217;28;20440;-81
2021/06/02 08:22:13;;;;;;;2.13;2.00;;;20.00;44.10;;;;;;5148565;22;20647;-84
2021/06/02 08:24:56;;;;;;;3.23;2.53;;;20.10;44.30;;;;;;5041799;28;20450;-84
2021/06/02 08:27:53;;;;;;;2.70;2.50;;;20.40;44.40;;;;;;5041944;28;20434;-84
2021/06/02 08:38:01;;;;;;;6.77;2.47;;;20.40;42.60;;;;;;5039496;28;20483;-85
2021/06/02 08:59:39;;;;;;;4.20;2.60;;;21.20;42.50;;;;;;5093476;22;20509;-83
2021/06/02 09:05:26;;;;;;;3.00;2.70;;;20.50;41.50;;;;;;5023014;28;20619;-85
2021/06/02 09:08:02;;;;;;;3.00;2.20;;;20.80;42.60;;;;;;5046858;28;20454;-85
2021/06/02 09:10:52;;;;;;;2.73;2.30;;;20.50;41.90;;;;;;5036013;28;20522;-85
2021/06/02 09:13:28;;;;;;;4.03;2.43;;;20.80;42.20;;;;;;5043784;28;20453;-84
2021/06/02 09:16:05;;;;;;;4.73;2.90;;;21.30;42.30;;;;;;5044345;28;20468;-86
2021/06/02 09:18:40;;;;;;;3.20;2.17;;;21.50;42.30;;;;;;5053147;28;20438;-86
2021/06/02 09:21:15;;;;;;;6.50;3.33;;;21.60;41.50;;;;;;5043861;28;20561;-85
2021/06/02 09:23:52;;;;;;;2.53;2.30;;;21.80;41.80;;;;;;5037898;28;20451;-88
2021/06/02 09:26:30;;;;;;;2.80;2.23;;;21.90;41.30;;;;;;5043794;28;20457;-85
2021/06/02 09:29:29;;;;;;;2.53;2.30;;;22.00;41.50;;;;;;5049549;28;20448;-88
2021/06/02 09:35:42;;;;;;;3.37;2.40;;;21.60;41.20;;;;;;5054929;28;20821;-85
2021/06/02 09:38:29;;;;;;;3.30;3.00;;;21.70;41.30;;;;;;5050007;28;20536;-86
2021/06/02 09:41:04;;;;;;;3.00;2.60;;;22.00;41.20;;;;;;5033069;28;20536;-85
2021/06/02 09:43:50;;;;;;;2.50;2.30;;;21.70;41.00;;;;;;5031012;28;20512;-85
2021/06/02 09:46:30;;;;;;;3.57;2.80;;;21.40;40.70;;;;;;5033616;28;20449;-85
2021/06/02 09:49:18;;;;;;;5.50;2.70;;;21.70;41.10;;;;;;5033315;28;20450;-85
2021/06/02 09:51:58;;;;;;;3.90;2.70;;;22.20;41.10;;;;;;5021172;28;20457;-86
2021/06/02 09:54:34;;;;;;;2.50;2.30;;;22.50;40.80;;;;;;5020502;28;20446;-86
2021/06/02 10:00:57;;;;;;;3.43;2.30;;;22.50;39.90;;;;;;5001073;28;20459;-84
2021/06/02 10:03:34;;;;;;;2.83;2.53;;;22.60;39.50;;;;;;5012603;28;20480;-85
2021/06/02 10:16:55;;;;;;;3.37;2.47;;;22.80;39.70;;;;;;4969870;28;20424;-80
2021/06/02 10:19:51;;;;;;;2.80;2.13;;;23.50;39.50;;;;;;5014556;28;20456;-81
2021/06/02 10:22:30;;;;;;;3.00;2.57;;;23.90;39.40;;;;;;5029827;28;20459;-89
2021/06/02 10:25:07;;;;;;;2.40;1.70;;;23.10;39.00;;;;;;5029644;28;20501;-87
2021/06/02 10:27:44;;;;;;;3.50;2.33;;;23.80;39.30;;;;;;5039473;28;20454;-84
2021/06/02 10:30:19;;;;;;;2.80;2.47;;;24.10;39.10;;;;;;5046810;28;20493;-83
2021/06/02 10:32:55;;;;;;;5.93;2.07;;;24.80;38.90;;;;;;5042883;28;20438;-82
2021/06/02 10:35:30;;;;;;;2.30;2.10;;;25.20;38.90;;;;;;5038092;28;20451;-83
2021/06/02 10:38:17;;;;;;;2.80;2.13;;;25.30;38.40;;;;;;5031766;28;20445;-84
2021/06/02 10:40:54;;;;;;;2.60;2.20;;;25.80;38.40;;;;;;5020606;28;20564;-86
2021/06/02 10:43:34;;;;;;;8.97;2.40;;;25.90;38.00;;;;;;5023896;28;20550;-85
2021/06/02 10:46:16;;;;;;;5.43;2.40;;;25.40;38.10;;;;;;5024308;28;20478;-83
2021/06/02 10:48:54;;;;;;;5.70;2.07;;;25.60;38.00;;;;;;5022814;28;20439;-84
2021/06/02 10:51:47;;;;;;;1.90;1.80;;;25.70;38.40;;;;;;5022382;28;20869;-83
2021/06/02 10:54:36;;;;;;;3.63;2.13;;;25.60;37.80;;;;;;5019507;28;20454;-87
2021/06/02 10:57:19;;;;;;;3.27;2.27;;;25.00;38.00;;;;;;5019107;28;20980;-87
2021/06/02 11:00:05;;;;;;;2.33;2.13;;;23.60;37.70;;;;;;5029188;28;20524;-81
2021/06/02 11:02:41;;;;;;;2.23;2.13;;;23.50;38.00;;;;;;5021242;28;21447;-82
2021/06/02 11:05:22;;;;;;;5.23;2.17;;;24.30;37.80;;;;;;5016841;28;20485;-82
2021/06/02 11:08:00;;;;;;;4.00;2.33;;;24.50;37.80;;;;;;5021189;28;20485;-82
2021/06/02 11:10:39;;;;;;;3.23;2.60;;;24.80;38.00;;;;;;5016948;28;20462;-85
2021/06/02 11:13:14;;;;;;;2.93;2.33;;;24.70;37.50;;;;;;5028195;28;21012;-84
2021/06/02 11:15:52;;;;;;;3.00;2.27;;;24.30;38.10;;;;;;5018808;28;20961;-83
2021/06/02 11:18:29;;;;;;;2.63;2.03;;;25.00;38.00;;;;;;5028911;28;21050;-85
2021/06/02 11:21:14;;;;;;;1.60;1.43;;;25.40;35.60;;;;;;5018761;28;20475;-84
2021/06/02 11:23:49;;;;;;;1.80;1.70;;;25.70;34.20;;;;;;5016850;28;20688;-82
2021/06/02 11:26:38;;;;;;;2.60;1.50;;;25.80;34.70;;;;;;5025652;28;20512;-90
2021/06/02 11:29:19;;;;;;;3.00;1.80;;;25.70;34.80;;;;;;5019739;28;20650;-85
2021/06/02 11:32:01;;;;;;;2.30;2.10;;;25.50;33.70;;;;;;5019907;28;20458;-82
2021/06/02 11:34:38;;;;;;;1.90;1.80;;;25.30;36.20;;;;;;5017129;28;20600;-84
2021/06/02 11:37:16;;;;;;;2.60;2.40;;;24.80;36.80;;;;;;5017425;28;20454;-84
2021/06/02 11:40:00;;;;;;;2.53;1.83;;;24.60;37.00;;;;;;5033269;28;20475;-82
2021/06/02 11:42:39;;;;;;;4.83;2.17;;;24.10;36.30;;;;;;5020664;28;20493;-84
2021/06/02 11:45:15;;;;;;;2.20;2.10;;;24.20;36.80;;;;;;5030977;28;20445;-85
2021/06/02 11:47:56;;;;;;;3.33;1.90;;;24.40;36.80;;;;;;5014798;28;20458;-84
2021/06/02 11:50:31;;;;;;;2.33;2.13;;;24.70;35.90;;;;;;5030728;28;20470;-85
2021/06/02 11:53:07;;;;;;;1.97;1.87;;;24.20;36.60;;;;;;5019870;28;20557;-82
2021/06/02 11:55:42;;;;;;;2.17;2.00;;;24.40;36.50;;;;;;5017350;28;20485;-86
2021/06/02 11:58:22;;;;;;;3.37;1.83;;;25.00;34.10;;;;;;5020650;28;20520;-83
2021/06/02 12:00:57;;;;;;;1.60;1.47;;;25.00;34.20;;;;;;5017353;28;20497;-84
2021/06/02 12:03:31;;;;;;;1.97;1.77;;;25.10;34.10;;;;;;5025370;28;20463;-83
2021/06/02 12:06:07;;;;;;;3.27;1.70;;;24.90;34.10;;;;;;5018819;28;20454;-84
2021/06/02 12:08:42;;;;;;;2.00;1.80;;;25.10;34.20;;;;;;5020207;28;20532;-84
2021/06/02 12:11:14;;;;;;;2.63;2.10;;;24.30;35.20;;;;;;5026370;28;20891;-83
2021/06/02 12:13:54;;;;;;;2.23;2.07;;;24.60;36.50;;;;;;5032224;28;20457;-88
2021/06/02 12:16:30;;;;;;;2.90;1.83;;;24.70;36.20;;;;;;5032585;28;20485;-86
2021/06/02 12:19:05;;;;;;;3.67;2.13;;;24.90;36.60;;;;;;5023780;28;20459;-84
2021/06/02 12:21:41;;;;;;;2.23;1.80;;;25.00;36.40;;;;;;5024768;28;20473;-81
2021/06/02 12:24:24;;;;;;;2.20;1.63;;;25.20;34.50;;;;;;5023473;28;20451;-82
2021/06/02 12:26:57;;;;;;;1.53;1.43;;;25.20;33.70;;;;;;5026334;28;20465;-85
2021/06/02 12:29:38;;;;;;;4.17;2.03;;;25.20;33.80;;;;;;5019920;28;20454;-83
2021/06/02 12:32:16;;;;;;;1.93;1.70;;;25.30;33.80;;;;;;5021988;28;20454;-83
2021/06/02 12:34:54;;;;;;;2.90;1.90;;;25.40;34.30;;;;;;5018039;28;21273;-82
2021/06/02 12:37:28;;;;;;;2.50;2.30;;;25.40;34.00;;;;;;5022246;28;20446;-84
2021/06/02 12:40:08;;;;;;;2.20;1.73;;;25.30;33.70;;;;;;5019941;28;20548;-80
2021/06/02 12:42:46;;;;;;;3.73;1.97;;;25.50;33.80;;;;;;5024306;28;20450;-85
2021/06/02 12:45:43;;;;;;;4.70;1.70;;;25.60;33.70;;;;;;5018486;28;20825;-84
2021/06/02 12:48:32;;;;;;;4.30;2.00;;;25.70;32.90;;;;;;5022809;28;20451;-83
2021/06/02 12:51:08;;;;;;;1.60;1.47;;;25.80;33.80;;;;;;5027816;28;20537;-85
2021/06/02 12:53:46;;;;;;;2.13;1.70;;;25.80;33.20;;;;;;5036281;28;20442;-85
2021/06/02 12:59:18;;;;;;;3.27;1.73;;;24.80;33.30;;;;;;5036982;28;20461;-86
2021/06/02 13:02:02;;;;;;;2.87;1.53;;;25.20;34.10;;;;;;5017419;28;20823;-85
2021/06/02 13:04:35;;;;;;;2.20;1.50;;;;;;;;;;5021199;28;20445;-86
2021/06/02 13:07:12;;;;;;;1.87;1.50;;;25.10;33.60;;;;;;5025359;28;20616;-82
2021/06/02 13:09:46;;;;;;;1.87;1.70;;;25.80;33.80;;;;;;5023658;28;20554;-86
2021/06/02 13:12:26;;;;;;;1.87;1.57;;;25.80;33.70;;;;;;5026039;28;20488;-82
2021/06/02 13:15:01;;;;;;;3.90;2.03;;;26.00;33.50;;;;;;5027097;28;20534;-86
2021/06/02 13:17:49;;;;;;;2.30;1.30;;;26.00;33.00;;;;;;5028360;28;20968;-83
2021/06/02 13:20:43;;;;;;;1.60;1.50;;;26.00;32.40;;;;;;5033902;28;20462;-85
2021/06/02 13:23:21;;;;;;;1.97;1.77;;;25.90;32.70;;;;;;5026078;28;20461;-82
2021/06/02 13:26:09;;;;;;;3.87;1.67;;;25.80;33.10;;;;;;5025588;28;20446;-83
2021/06/02 13:28:54;;;;;;;3.23;1.93;;;25.60;33.40;;;;;;5031762;28;20473;-86
2021/06/02 13:31:39;;;;;;;4.10;1.73;;;25.70;33.40;;;;;;5027218;28;20447;-82
2021/06/02 13:34:43;;;;;;;2.73;1.67;;;25.70;33.30;;;;;;5027070;28;20450;-85
2021/06/02 13:37:22;;;;;;;3.37;1.50;;;25.70;33.40;;;;;;5023165;28;20465;-84
2021/06/02 13:40:31;;;;;;;3.33;2.17;;;25.20;33.70;;;;;;5022573;28;20549;-85
2021/06/02 13:43:15;;;;;;;1.83;1.73;;;25.20;33.60;;;;;;5021607;28;20461;-82
2021/06/02 13:45:50;;;;;;;2.53;2.17;;;25.20;32.90;;;;;;5017983;28;20457;-87
2021/06/02 13:48:37;;;;;;;2.73;1.57;;;25.20;32.90;;;;;;5014821;28;20471;-85
2021/06/02 13:51:29;;;;;;;2.53;1.80;;;24.90;32.70;;;;;;5025854;28;20459;-85
2021/06/02 13:54:21;;;;;;;1.80;1.60;;;25.20;32.80;;;;;;5027360;28;20443;-81
2021/06/02 13:57:01;;;;;;;2.53;1.57;;;25.40;33.60;;;;;;5033624;28;20531;-82
2021/06/02 13:59:45;;;;;;;1.80;1.70;;;25.70;33.70;;;;;;5042048;28;20442;-87
2021/06/02 14:02:21;;;;;;;2.10;1.80;;;25.60;33.30;;;;;;5040874;28;20461;-87
2021/06/02 14:05:08;;;;;;;3.20;1.57;;;25.20;33.20;;;;;;5042625;28;20586;-85
2021/06/02 14:07:45;;;;;;;1.77;1.67;;;25.40;33.50;;;;;;5023589;28;20462;-83
2021/06/02 14:10:20;;;;;;;2.30;2.00;;;25.60;33.40;;;;;;5033604;28;20463;-82
2021/06/02 14:12:58;;;;;;;2.00;1.70;;;25.50;33.50;;;;;;5030541;28;20473;-84
2021/06/02 14:15:33;;;;;;;2.20;1.53;;;25.20;33.30;;;;;;5040631;28;20454;-82
2021/06/02 14:18:08;;;;;;;4.30;2.10;;;25.40;33.80;;;;;;5039976;28;20454;-81
2021/06/02 14:20:42;;;;;;;2.40;2.20;;;25.70;34.00;;;;;;5030495;28;20481;-83
2021/06/02 14:23:22;;;;;;;2.00;1.90;;;25.90;33.70;;;;;;5028251;28;20461;-82
2021/06/02 14:26:02;;;;;;;2.20;1.90;;;25.90;33.30;;;;;;5029985;28;20447;-82
2021/06/02 14:28:37;;;;;;;4.30;1.77;;;25.80;33.20;;;;;;5027017;28;20437;-84
2021/06/02 14:31:12;;;;;;;2.40;1.87;;;25.60;33.20;;;;;;5021696;28;20482;-83
2021/06/02 14:34:07;;;;;;;3.23;1.87;;;25.40;33.20;;;;;;5034012;28;20450;-86
2021/06/02 14:36:42;;;;;;;1.90;1.80;;;25.60;33.50;;;;;;5036875;28;20565;-88
2021/06/02 14:39:18;;;;;;;2.57;1.67;;;26.00;33.60;;;;;;5032617;28;20477;-82
2021/06/02 14:41:55;;;;;;;1.83;1.70;;;26.10;33.40;;;;;;5031153;28;20482;-82
2021/06/02 14:44:30;;;;;;;3.13;1.87;;;26.10;33.90;;;;;;5026283;28;20531;-88
2021/06/02 14:47:09;;;;;;;2.30;1.60;;;26.10;33.10;;;;;;5033289;28;20455;-83
2021/06/02 14:49:44;;;;;;;1.83;1.70;;;26.10;33.10;;;;;;5031098;28;20455;-81
2021/06/02 14:52:19;;;;;;;3.03;2.00;;;26.10;33.10;;;;;;5031928;28;20454;-82
2021/06/02 14:54:53;;;;;;;2.60;1.93;;;26.30;33.20;;;;;;5034512;28;20962;-83
2021/06/02 14:57:28;;;;;;;2.27;1.70;;;26.30;33.40;;;;;;5030195;28;20454;-81
2021/06/02 15:00:02;;;;;;;2.47;2.00;;;26.40;33.60;;;;;;5019813;28;20471;-85
2021/06/02 15:02:37;;;;;;;1.77;1.67;;;26.40;33.70;;;;;;5023371;28;20470;-81
2021/06/02 15:05:30;;;;;;;5.00;2.07;;;26.20;32.90;;;;;;5013658;28;20459;-85
2021/06/02 15:08:05;;;;;;;1.77;1.67;;;26.10;32.80;;;;;;5023716;28;20459;-81
2021/06/02 15:10:42;;;;;;;1.60;1.50;;;25.90;32.50;;;;;;5024253;28;20506;-82
2021/06/02 15:13:17;;;;;;;4.73;1.87;;;26.00;33.10;;;;;;5015405;28;20482;-80
2021/06/02 15:19:37;;;;;;;3.30;1.83;;;25.90;33.50;;;;;;4961777;29;20483;-80
2021/06/02 15:22:43;;;;;;;2.13;2.03;;;25.90;33.00;;;;;;4965208;28;21007;-81
2021/06/02 16:32:52;;;;;;;5.47;2.23;;;27.60;31.30;;;;;;5019659;28;20443;-81
2021/06/02 16:35:26;;;;;;;5.17;2.47;;;28.40;31.30;;;;;;5018206;28;21160;-79
2021/06/02 16:38:01;;;;;;;2.00;1.80;;;29.00;31.10;;;;;;5020866;28;20451;-81
2021/06/02 16:40:39;;;;;;;2.80;2.53;;;28.80;30.70;;;;;;5031479;28;20474;-81
2021/06/02 16:43:15;;;;;;;3.00;2.70;;;28.90;31.40;;;;;;5031051;28;20453;-81
2021/06/02 16:45:50;;;;;;;9.43;3.90;;;29.20;31.50;;;;;;5046809;28;20957;-80
2021/06/02 16:48:25;;;;;;;2.83;2.60;;;29.90;31.70;;;;;;5046879;28;20446;-85
2021/06/02 16:51:00;;;;;;;2.07;1.83;;;30.00;31.00;;;;;;5034445;28;20455;-80
2021/06/02 16:53:39;;;;;;;3.10;2.20;;;30.20;31.10;;;;;;5040740;28;20453;-80
2021/06/02 16:56:17;;;;;;;2.23;2.10;;;30.20;30.90;;;;;;5043272;28;20457;-80
2021/06/02 16:58:55;;;;;;;2.70;1.60;;;30.80;30.90;;;;;;5043591;28;21270;-82
2021/06/02 17:01:30;;;;;;;1.73;1.50;;;31.20;30.40;;;;;;5041393;28;20469;-80
2021/06/02 17:04:07;;;;;;;2.00;1.70;;;31.30;30.00;;;;;;5045043;28;20492;-81
2021/06/02 17:06:42;;;;;;;2.07;1.70;;;31.60;29.90;;;;;;5043339;28;21265;-80
2021/06/02 17:09:17;;;;;;;2.53;2.33;;;32.60;29.90;;;;;;5041737;28;20444;-81
2021/06/02 17:11:54;;;;;;;3.50;3.23;;;32.10;29.20;;;;;;5040040;28;20456;-81
2021/06/02 17:14:28;;;;;;;3.23;2.27;;;33.50;29.60;;;;;;5041143;28;20468;-82
2021/06/02 17:17:04;;;;;;;2.10;1.53;;;34.70;29.40;;;;;;5037563;28;20461;-81
2021/06/02 17:19:39;;;;;;;1.93;1.83;;;35.40;28.80;;;;;;5042248;28;20474;-82
2021/06/02 17:22:15;;;;;;;2.67;2.47;;;35.60;28.70;;;;;;5042671;28;20473;-81
2021/06/02 17:24:51;;;;;;;2.17;2.00;;;35.80;28.90;;;;;;5039634;28;20458;-80
2021/06/02 17:27:28;;;;;;;3.07;2.20;;;36.60;28.90;;;;;;5053162;28;20446;-82